Time;durP1;ratioP1;P1;durP2;ratioP2;P2;SDS_P1;SDS_P2;PMS_P1;PMS_P2;Temp;Humidity;BMP_temperature;BMP_pressure;BME280_temperature;BME280_humidity;BME280_pressure;Samples;Min_cycle;Max_cycle;Signal;HPM_P1;HPM_P2
2020/12/27 00:01:05;;;;;;;3.53;2.97;;;;;;;5.70;66.40;100316.22;6358300;27;20222;-80
2020/12/27 00:04:26;;;;;;;2.73;2.47;;;;;;;5.91;65.42;100307.63;6318626;27;20237;-79
2020/12/27 00:07:47;;;;;;;2.50;2.30;;;;;;;6.06;65.05;100276.66;6368139;27;20229;-80
2020/12/27 00:11:07;;;;;;;3.03;2.80;;;;;;;5.70;66.39;100280.91;6353830;27;20217;-81
2020/12/27 00:14:27;;;;;;;2.67;2.47;;;;;;;5.91;65.84;100276.59;6345855;27;20222;-79
2020/12/27 00:17:48;;;;;;;4.33;3.93;;;;;;;6.05;65.10;100271.50;6346772;27;20308;-80
2020/12/27 00:21:12;;;;;;;4.00;3.57;;;;;;;6.06;64.74;100266.31;6345181;27;20225;-80
2020/12/27 00:24:33;;;;;;;4.07;2.73;;;;;;;5.82;65.50;100256.78;6337070;27;20225;-79
2020/12/27 00:27:53;;;;;;;3.37;3.07;;;;;;;5.78;65.79;100246.44;6338493;27;20283;-80
2020/12/27 00:31:16;;;;;;;3.77;2.33;;;;;;;6.04;65.34;100239.59;6330967;28;20226;-80
2020/12/27 00:34:38;;;;;;;2.33;2.13;;;;;;;5.77;67.51;100236.97;6326940;28;20226;-79
2020/12/27 00:37:59;;;;;;;4.47;3.47;;;;;;;5.72;68.36;100214.59;6322522;28;20223;-80
2020/12/27 00:41:20;;;;;;;4.37;2.67;;;;;;;5.60;69.27;100235.22;6324605;28;20233;-78
2020/12/27 00:44:41;;;;;;;6.50;3.00;;;;;;;5.78;68.54;100200.81;6343529;27;20237;-78
2020/12/27 00:48:01;;;;;;;4.23;3.27;;;;;;;5.69;69.20;100193.91;6353323;27;20233;-80
2020/12/27 00:51:22;;;;;;;4.03;3.10;;;;;;;5.66;68.98;100147.41;6368122;27;20280;-81
2020/12/27 00:54:45;;;;;;;3.17;2.60;;;;;;;5.85;68.60;100162.91;6353946;27;20217;-79
2020/12/27 00:58:06;;;;;;;4.20;3.83;;;;;;;5.48;70.05;100165.47;6356149;27;20316;-80
2020/12/27 01:01:26;;;;;;;4.03;2.97;;;;;;;5.88;68.71;100147.41;6343934;27;20222;-79
2020/12/27 01:04:48;;;;;;;3.73;3.43;;;;;;;6.19;67.50;100142.25;6346075;27;20590;-79
2020/12/27 01:08:13;;;;;;;2.60;2.40;;;;;;;6.18;67.82;100135.31;6331102;27;20229;-79
2020/12/27 01:11:34;;;;;;;2.70;2.30;;;;;;;6.19;67.48;100142.25;6339220;27;20233;-78
2020/12/27 01:14:54;;;;;;;3.23;2.93;;;;;;;5.82;68.82;100106.06;6352175;27;20312;-78
2020/12/27 01:18:34;;;;;;;3.50;3.07;;;;;;;5.74;69.27;100108.66;6368432;27;20610;-79
2020/12/27 01:21:56;;;;;;;4.20;3.90;;;;;;;5.63;69.06;100090.56;6367365;27;20225;-79
2020/12/27 01:25:34;;;;;;;3.73;3.43;;;;;;;5.86;68.28;100081.94;6339278;27;20226;-79
2020/12/27 01:28:56;;;;;;;4.87;4.10;;;;;;;5.96;68.29;100081.09;6328905;28;20225;-79
2020/12/27 01:32:16;;;;;;;4.20;3.27;;;;;;;5.62;69.40;100072.47;6344427;27;20799;-77
2020/12/27 01:35:47;;;;;;;4.13;3.70;;;;;;;5.47;69.73;100063.03;6328966;27;20708;-78
2020/12/27 01:39:10;;;;;;;4.03;3.67;;;;;;;5.63;68.63;100054.41;6339733;27;20237;-77
2020/12/27 01:42:32;;;;;;;3.83;3.33;;;;;;;5.65;68.90;100037.19;6336492;27;20690;-78
2020/12/27 01:45:53;;;;;;;4.10;3.70;;;;;;;5.71;68.14;100023.38;6335126;27;20221;-79
2020/12/27 01:49:14;;;;;;;4.87;4.47;;;;;;;5.79;67.90;100028.53;6309217;28;20609;-78
2020/12/27 01:52:35;;;;;;;5.30;3.93;;;;;;;5.61;68.37;100045.78;6338709;27;20222;-78
2020/12/27 01:56:13;;;;;;;3.90;3.60;;;;;;;5.30;68.59;100025.16;6343355;27;20572;-80
2020/12/27 01:59:39;;;;;;;4.00;3.70;;;;;;;5.59;68.36;100011.34;6366657;27;20245;-79
2020/12/27 02:03:20;;;;;;;5.13;3.80;;;;;;;5.48;67.93;100007.94;6326590;28;20638;-79
2020/12/27 02:06:42;;;;;;;3.93;3.63;;;;;;;5.36;68.62;99971.78;6335228;28;20279;-79
2020/12/27 02:10:16;;;;;;;4.83;3.63;;;;;;;5.51;67.78;99945.94;6334765;27;20611;-79
2020/12/27 02:13:46;;;;;;;4.60;3.03;;;;;;;5.31;68.65;99944.25;6318245;28;20234;-78
2020/12/27 02:17:07;;;;;;;4.83;4.27;;;;;;;5.31;68.25;99913.28;6318624;28;20230;-78
2020/12/27 02:20:48;;;;;;;4.27;3.60;;;;;;;5.06;68.82;99901.25;6326391;28;20529;-79
2020/12/27 02:24:15;;;;;;;4.00;3.60;;;;;;;5.39;68.00;99897.78;6330136;28;20256;-80
2020/12/27 02:27:35;;;;;;;3.03;2.83;;;;;;;5.51;67.33;99904.63;6341507;27;20226;-78
2020/12/27 02:30:56;;;;;;;3.73;3.23;;;;;;;5.26;68.57;99907.25;6353269;27;20234;-78
2020/12/27 02:34:16;;;;;;;3.20;2.90;;;;;;;5.13;68.70;99893.50;6352612;27;20224;-77
2020/12/27 02:37:39;;;;;;;3.13;2.93;;;;;;;4.91;69.08;99878.94;6333552;28;20234;-78
2020/12/27 02:41:13;;;;;;;3.17;2.90;;;;;;;5.12;68.43;99859.97;6325530;28;20332;-78
2020/12/27 02:45:09;;;;;;;2.80;2.60;;;;;;;5.17;67.93;99875.44;6338338;28;20225;-78
2020/12/27 02:48:50;;;;;;;5.60;2.97;;;;;;;5.31;67.44;99847.84;6334459;28;20316;-78
2020/12/27 02:52:15;;;;;;;4.73;3.10;;;;;;;5.07;67.88;99847.06;6355319;28;20229;-79
2020/12/27 02:55:36;;;;;;;2.97;2.73;;;;;;;4.89;67.87;99826.47;6339698;28;20225;-80
2020/12/27 02:58:59;;;;;;;3.70;3.40;;;;;;;5.25;66.72;99829.81;6334583;28;20230;-79
2020/12/27 03:02:20;;;;;;;3.60;3.30;;;;;;;5.37;66.64;99853.03;6333201;28;20253;-78
2020/12/27 03:05:56;;;;;;;3.27;2.90;;;;;;;5.38;65.60;99803.09;6342930;28;20228;-81
2020/12/27 03:09:16;;;;;;;3.17;2.83;;;;;;;5.13;66.46;99776.50;6333691;28;20225;-80
2020/12/27 03:12:53;;;;;;;3.90;3.20;;;;;;;5.33;65.72;99766.97;6342883;28;20229;-79
2020/12/27 03:16:16;;;;;;;2.70;2.47;;;;;;;5.21;65.73;99761.00;6346239;28;20229;-79
2020/12/27 03:19:55;;;;;;;2.37;2.17;;;;;;;5.13;65.29;99758.44;6367109;28;20656;-79
2020/12/27 03:23:24;;;;;;;3.13;2.73;;;;;;;5.47;64.65;99733.34;6343910;28;20221;-79
2020/12/27 03:26:49;;;;;;;2.53;2.30;;;;;;;5.62;64.04;99734.09;6355245;27;20259;-79
2020/12/27 03:30:10;;;;;;;2.50;2.30;;;;;;;5.61;63.25;99702.25;6354808;27;20221;-79
2020/12/27 03:33:34;;;;;;;4.03;2.33;;;;;;;5.49;63.79;99700.59;6337712;27;20221;-78
2020/12/27 03:37:00;;;;;;;2.57;2.03;;;;;;;5.72;62.80;99690.13;6341550;27;20230;-78
2020/12/27 03:40:39;;;;;;;2.20;2.07;;;;;;;5.41;63.16;99686.00;6361489;27;20233;-77
2020/12/27 03:44:10;;;;;;;2.43;2.23;;;;;;;5.45;62.52;99678.25;6339060;27;20316;-78
2020/12/27 03:47:49;;;;;;;4.57;2.17;;;;;;;5.47;62.16;99671.34;6368400;27;20228;-79
2020/12/27 03:51:17;;;;;;;2.97;2.57;;;;;;;5.59;62.08;99657.50;6347923;27;20221;-78
2020/12/27 03:54:37;;;;;;;3.83;2.80;;;;;;;5.55;61.88;99654.97;6360662;27;20290;-79
2020/12/27 03:58:18;;;;;;;2.30;2.10;;;;;;;5.51;62.03;99638.63;6350667;27;20236;-79
2020/12/27 04:01:45;;;;;;;2.63;2.20;;;;;;;5.06;62.82;99632.88;6355792;27;20232;-79
2020/12/27 04:05:07;;;;;;;2.40;2.20;;;;;;;5.42;62.59;99620.59;6355851;27;20225;-79
2020/12/27 04:08:29;;;;;;;3.73;2.47;;;;;;;5.25;62.27;99608.69;6347629;27;20229;-78
2020/12/27 04:11:49;;;;;;;3.33;2.50;;;;;;;5.34;61.61;99612.91;6334483;28;20222;-80
2020/12/27 04:15:10;;;;;;;2.30;2.10;;;;;;;5.27;61.77;99583.72;6345894;27;20228;-78
2020/12/27 04:18:44;;;;;;;4.00;2.43;;;;;;;5.16;62.17;99539.06;6334835;27;20217;-78
2020/12/27 04:22:22;;;;;;;3.13;2.30;;;;;;;5.60;60.64;99547.28;6354655;27;20319;-77
2020/12/27 04:25:53;;;;;;;2.23;2.13;;;;;;;5.30;61.18;99541.53;6352092;27;20221;-78
2020/12/27 04:29:13;;;;;;;3.47;2.70;;;;;;;5.28;60.88;99546.69;6346693;27;20218;-78
2020/12/27 04:32:41;;;;;;;3.77;2.30;;;;;;;5.43;60.33;99532.81;6336210;27;20536;-79
2020/12/27 04:36:15;;;;;;;3.63;2.97;;;;;;;5.53;60.03;99513.78;6352131;27;20244;-79
2020/12/27 04:39:36;;;;;;;2.27;1.97;;;;;;;5.31;60.25;99500.22;6324867;27;20222;-81
2020/12/27 04:42:59;;;;;;;3.67;2.90;;;;;;;5.26;60.17;99519.19;6332324;27;20611;-79
2020/12/27 04:46:27;;;;;;;5.50;2.47;;;;;;;5.25;60.34;99500.28;6337708;27;20871;-79
2020/12/27 04:49:52;;;;;;;7.30;4.47;;;;;;;5.10;60.78;99510.72;6336780;27;20221;-79
2020/12/27 04:53:13;;;;;;;4.10;2.50;;;;;;;5.65;59.64;99499.88;6342191;28;20234;-79
2020/12/27 04:56:40;;;;;;;2.67;2.30;;;;;;;5.59;59.31;99484.47;6322266;28;20218;-80
2020/12/27 05:00:09;;;;;;;7.23;3.70;;;;;;;5.61;59.18;99482.72;6327084;27;20225;-79
2020/12/27 05:03:52;;;;;;;4.47;2.70;;;;;;;5.30;59.85;99501.06;6325751;28;20234;-80
2020/12/27 05:07:18;;;;;;;3.83;3.43;;;;;;;5.22;59.84;99505.44;6340078;28;20217;-79
2020/12/27 05:10:57;;;;;;;4.63;3.07;;;;;;;5.57;58.98;99483.63;6330802;27;20604;-78
2020/12/27 05:14:21;;;;;;;4.10;3.00;;;;;;;5.28;60.08;99451.19;6339205;28;20561;-79
2020/12/27 05:17:48;;;;;;;3.77;2.93;;;;;;;5.12;59.73;99459.94;6343380;27;20281;-79
2020/12/27 05:21:10;;;;;;;3.57;3.10;;;;;;;5.23;59.70;99424.53;6330299;27;20253;-78
2020/12/27 05:24:31;;;;;;;3.40;2.77;;;;;;;5.35;59.45;99414.97;6341326;27;20230;-78
2020/12/27 05:28:06;;;;;;;4.07;2.97;;;;;;;5.21;59.73;99420.28;6337267;27;20245;-78
2020/12/27 05:31:48;;;;;;;6.10;3.40;;;;;;;5.30;59.11;99402.97;6346937;27;20229;-78
2020/12/27 05:35:32;;;;;;;3.87;2.93;;;;;;;4.95;60.03;99399.88;6342497;27;20519;-78
2020/12/27 05:38:59;;;;;;;3.17;2.83;;;;;;;5.04;60.26;99408.41;6352989;27;20229;-79
2020/12/27 05:42:46;;;;;;;4.20;3.53;;;;;;;5.00;59.41;99364.56;6343496;28;20217;-80
2020/12/27 05:46:07;;;;;;;5.10;3.70;;;;;;;5.01;59.31;99386.94;6350445;27;20221;-78
2020/12/27 05:49:29;;;;;;;4.23;3.50;;;;;;;5.21;59.09;99387.56;6350492;27;20226;-79
2020/12/27 05:53:06;;;;;;;4.13;3.57;;;;;;;5.44;58.64;99365.84;6336528;28;20332;-78
2020/12/27 05:56:39;;;;;;;4.67;3.60;;;;;;;4.89;59.68;99352.63;6341112;27;20218;-80
2020/12/27 06:00:04;;;;;;;5.63;3.23;;;;;;;5.11;59.66;99342.09;6334179;27;20241;-79
2020/12/27 06:03:55;;;;;;;4.45;3.28;;;;;;;5.07;58.92;99324.94;6340894;27;20811;-78
2020/12/27 06:07:32;;;;;;;4.23;3.13;;;;;;;5.18;58.97;99328.25;6341472;27;20220;-79
2020/12/27 06:10:58;;;;;;;3.00;2.47;;;;;;;4.93;59.28;99328.50;6337281;28;20229;-80
2020/12/27 06:14:37;;;;;;;3.67;2.90;;;;;;;5.30;58.87;99294.56;6334533;27;20221;-79
2020/12/27 06:18:39;;;;;;;4.33;3.23;;;;;;;5.13;59.42;99268.94;6252936;28;20221;-79
2020/12/27 06:22:32;;;;;;;3.97;3.20;;;;;;;5.23;58.91;99280.00;6322535;27;20609;-79
2020/12/27 06:26:14;;;;;;;3.63;2.87;;;;;;;5.30;58.51;99273.91;6341864;28;20230;-78
2020/12/27 06:29:58;;;;;;;3.87;3.40;;;;;;;4.95;58.99;99273.47;6347829;27;20225;-80
2020/12/27 06:33:22;;;;;;;4.90;3.00;;;;;;;4.89;59.44;99264.91;6352592;27;20813;-78
2020/12/27 06:36:42;;;;;;;3.47;3.00;;;;;;;5.18;58.75;99250.00;6351118;27;20221;-78
2020/12/27 06:40:09;;;;;;;3.20;2.73;;;;;;;5.12;59.00;99251.75;6337765;28;20234;-78
2020/12/27 06:43:59;;;;;;;2.47;2.10;;;;;;;5.29;58.04;99236.06;6333263;28;20226;-79
2020/12/27 06:47:48;;;;;;;3.43;2.83;;;;;;;5.15;58.36;99250.84;6350427;28;20225;-79
2020/12/27 06:51:11;;;;;;;2.60;2.40;;;;;;;4.88;58.45;99244.28;6339450;28;20229;-79
2020/12/27 06:54:43;;;;;;;3.37;3.07;;;;;;;5.10;57.77;99214.81;6345351;28;20236;-78
2020/12/27 06:58:20;;;;;;;3.37;2.70;;;;;;;5.10;58.36;99219.13;6352698;28;20221;-80
2020/12/27 07:02:06;;;;;;;3.20;2.90;;;;;;;4.87;58.59;99203.91;6336497;28;20712;-79
2020/12/27 07:05:31;;;;;;;4.10;2.57;;;;;;;5.13;57.86;99177.75;6346086;27;20226;-79
2020/12/27 07:08:56;;;;;;;2.53;2.33;;;;;;;4.83;58.28;99217.72;6367161;27;20225;-81
2020/12/27 07:12:17;;;;;;;2.73;1.97;;;;;;;5.04;57.94;99175.28;6346741;28;20217;-79
2020/12/27 07:15:49;;;;;;;2.67;2.20;;;;;;;5.03;58.26;99181.34;6339563;27;20261;-78
2020/12/27 07:19:15;;;;;;;2.73;2.53;;;;;;;5.04;58.47;99162.41;6350348;27;20212;-79
2020/12/27 07:22:36;;;;;;;2.50;2.07;;;;;;;5.13;57.69;99160.53;6355604;27;20552;-78
2020/12/27 07:26:00;;;;;;;2.17;2.07;;;;;;;5.00;57.97;99160.72;6362747;27;20222;-78
2020/12/27 07:29:23;;;;;;;2.70;2.50;;;;;;;5.39;56.93;99141.28;6357002;27;20217;-77
2020/12/27 07:32:48;;;;;;;3.90;2.33;;;;;;;5.20;57.61;99130.38;6367691;27;20648;-78
2020/12/27 07:36:11;;;;;;;2.07;1.90;;;;;;;5.13;57.98;99121.84;6373141;27;20237;-77
2020/12/27 07:39:50;;;;;;;3.03;2.33;;;;;;;5.07;57.91;99113.34;6371265;27;20228;-78
2020/12/27 07:43:11;;;;;;;3.20;1.90;;;;;;;5.31;57.21;99102.69;6331090;28;20237;-78
2020/12/27 07:46:38;;;;;;;2.50;2.10;;;;;;;5.30;57.36;99093.22;6333328;27;20513;-78
2020/12/27 07:50:04;;;;;;;3.43;2.20;;;;;;;5.30;56.88;99090.63;6343883;27;20217;-78
2020/12/27 07:53:26;;;;;;;1.70;1.60;;;;;;;5.11;56.91;99064.25;6347627;27;20225;-78
2020/12/27 07:56:47;;;;;;;2.77;2.20;;;;;;;4.81;57.81;99064.66;6355204;27;20312;-81
2020/12/27 08:00:07;;;;;;;2.20;2.00;;;;;;;5.16;56.77;99076.22;6347337;27;20222;-78
2020/12/27 08:03:37;;;;;;;2.13;1.80;;;;;;;5.16;57.10;99064.19;6338875;27;20225;-77
2020/12/27 08:06:58;;;;;;;6.30;1.87;;;;;;;5.10;57.19;99049.66;6348906;27;20222;-78
2020/12/27 08:10:22;;;;;;;3.37;1.80;;;;;;;5.16;56.67;99047.84;6355285;27;20237;-80
2020/12/27 08:13:50;;;;;;;2.37;2.17;;;;;;;5.06;57.71;99034.22;6343123;28;20937;-78
2020/12/27 08:17:14;;;;;;;2.20;2.00;;;;;;;5.17;57.14;99011.69;6341796;27;20232;-78
2020/12/27 08:20:44;;;;;;;1.70;1.60;;;;;;;5.04;57.40;99021.38;6346626;27;20221;-78
2020/12/27 08:24:06;;;;;;;6.57;3.10;;;;;;;5.31;56.84;99009.75;6348122;27;20264;-78
2020/12/27 08:27:27;;;;;;;2.50;1.83;;;;;;;5.31;57.10;99004.59;6345613;28;20329;-79
2020/12/27 08:30:48;;;;;;;3.20;1.90;;;;;;;5.06;57.55;99008.41;6348311;27;20253;-79
2020/12/27 08:34:10;;;;;;;1.87;1.77;;;;;;;5.24;57.12;98984.06;6350145;27;20625;-79
2020/12/27 08:37:34;;;;;;;2.70;2.47;;;;;;;5.35;57.24;98973.53;6355722;27;20341;-79
2020/12/27 08:41:01;;;;;;;2.23;2.03;;;;;;;5.48;56.85;98977.63;6345253;27;20246;-78
2020/12/27 08:44:46;;;;;;;2.30;1.60;;;;;;;5.37;56.70;98982.09;6344308;28;20225;-78
2020/12/27 08:48:13;;;;;;;2.27;1.83;;;;;;;5.35;56.21;98960.63;6345405;27;20225;-79
2020/12/27 08:51:38;;;;;;;2.47;2.07;;;;;;;5.33;57.08;98977.03;6330536;27;20226;-78
2020/12/27 08:55:03;;;;;;;3.50;2.50;;;;;;;5.29;57.40;98969.34;6336090;27;20313;-77
2020/12/27 08:58:23;;;;;;;1.90;1.80;;;;;;;5.37;57.54;98940.81;6319688;28;20234;-80
2020/12/27 09:01:44;;;;;;;3.43;2.37;;;;;;;5.55;56.76;98937.91;6332635;27;20320;-78
2020/12/27 09:05:10;;;;;;;3.37;1.53;;;;;;;5.51;56.77;98920.78;6334592;27;20316;-77
2020/12/27 09:08:31;;;;;;;2.97;1.70;;;;;;;5.04;57.97;98917.28;6338480;28;20543;-79
2020/12/27 09:11:51;;;;;;;2.87;2.10;;;;;;;5.40;57.33;98915.78;6351445;27;20229;-78
2020/12/27 09:15:22;;;;;;;4.80;1.80;;;;;;;5.36;56.90;98913.31;6330601;27;20877;-79
2020/12/27 09:18:47;;;;;;;2.40;2.20;;;;;;;5.39;57.13;98892.59;6351469;27;20229;-78
2020/12/27 09:22:08;;;;;;;3.17;1.90;;;;;;;5.46;57.55;98895.03;6333297;27;20233;-78
2020/12/27 09:25:30;;;;;;;4.13;2.00;;;;;;;5.52;57.40;98874.28;6368140;27;20225;-78
2020/12/27 09:28:50;;;;;;;2.30;2.10;;;;;;;5.69;57.62;98871.34;6369457;27;20228;-78
2020/12/27 09:32:12;;;;;;;2.30;2.00;;;;;;;5.36;58.21;98861.69;6341641;28;20571;-77
2020/12/27 09:35:34;;;;;;;3.80;2.00;;;;;;;5.46;57.60;98868.38;6328278;28;20222;-78
2020/12/27 09:38:55;;;;;;;2.33;2.13;;;;;;;5.37;57.90;98801.41;6337408;27;20226;-78
2020/12/27 09:42:23;;;;;;;2.90;2.00;;;;;;;5.55;57.90;98842.38;6318222;28;20238;-78
2020/12/27 09:45:44;;;;;;;4.23;1.67;;;;;;;5.43;57.93;98821.94;6318179;28;20226;-80
2020/12/27 09:49:15;;;;;;;2.23;1.97;;;;;;;5.39;58.25;98820.31;6322755;28;20233;-77
2020/12/27 09:52:48;;;;;;;1.53;1.43;;;;;;;5.66;57.24;98803.41;6316992;28;20329;-79
2020/12/27 09:56:08;;;;;;;1.23;1.00;;;;;;;5.47;57.87;98790.88;6316152;28;20233;-78
2020/12/27 09:59:29;;;;;;;1.67;1.57;;;;;;;5.52;58.14;98806.25;6292975;28;20508;-77
2020/12/27 10:02:50;;;;;;;4.47;1.70;;;;;;;5.37;58.53;98785.94;6318037;27;20230;-77
2020/12/27 10:06:17;;;;;;;2.03;1.50;;;;;;;5.59;57.23;98766.53;6317204;28;20246;-77
2020/12/27 10:09:38;;;;;;;2.00;1.80;;;;;;;5.30;58.01;98761.97;6317461;28;20511;-78
2020/12/27 10:12:58;;;;;;;1.90;1.70;;;;;;;5.61;57.48;98763.94;6306249;28;20234;-77
2020/12/27 10:16:19;;;;;;;1.80;1.70;;;;;;;5.71;57.15;98755.09;6316494;28;20233;-78
2020/12/27 10:19:40;;;;;;;2.13;1.80;;;;;;;5.39;57.57;98740.28;6316824;28;20286;-78
2020/12/27 10:23:00;;;;;;;2.23;1.77;;;;;;;5.85;56.27;98753.03;6292922;28;20231;-78
2020/12/27 10:26:21;;;;;;;1.27;1.27;;;;;;;5.49;56.83;98749.56;6317051;28;20226;-78
2020/12/27 10:29:42;;;;;;;1.90;1.63;;;;;;;5.65;57.15;98745.75;6317088;28;20223;-80
2020/12/27 10:33:02;;;;;;;1.53;1.43;;;;;;;5.61;57.10;98738.09;6316986;28;20230;-80
2020/12/27 10:36:23;;;;;;;2.57;1.93;;;;;;;5.87;55.99;98722.00;6316142;28;20218;-79
2020/12/27 10:39:45;;;;;;;2.57;1.37;;;;;;;5.87;56.45;98709.97;6316605;28;20501;-78
2020/12/27 10:43:06;;;;;;;2.43;1.90;;;;;;;5.69;57.04;98715.53;6316669;28;20285;-79
2020/12/27 10:46:26;;;;;;;4.13;1.90;;;;;;;5.68;56.78;98713.81;6317612;28;20230;-79
2020/12/27 10:49:47;;;;;;;1.60;1.40;;;;;;;5.70;56.50;98701.75;6330992;28;20237;-79
2020/12/27 10:53:08;;;;;;;2.60;1.40;;;;;;;5.85;56.25;98687.59;6339093;28;20275;-79
2020/12/27 10:56:28;;;;;;;1.53;1.43;;;;;;;5.88;56.31;98695.28;6324058;28;20226;-79
2020/12/27 10:59:49;;;;;;;2.10;1.50;;;;;;;5.91;56.18;98685.75;6317809;28;20242;-80
2020/12/27 11:03:10;;;;;;;2.13;2.03;;;;;;;5.79;56.63;98708.41;6341960;28;20221;-80
2020/12/27 11:06:31;;;;;;;1.93;1.30;;;;;;;5.95;56.03;98660.69;6342186;28;20230;-80
2020/12/27 11:09:52;;;;;;;2.87;1.43;;;;;;;5.92;56.39;98679.69;6331470;28;20218;-79
2020/12/27 11:13:12;;;;;;;2.43;1.33;;;;;;;5.96;55.91;98639.16;6324711;28;21013;-79
2020/12/27 11:16:35;;;;;;;2.23;1.40;;;;;;;5.86;56.16;98599.75;6323614;28;20218;-79
2020/12/27 11:19:56;;;;;;;4.00;1.00;;;;;;;6.10;55.46;98608.63;6318760;28;20231;-79
2020/12/27 11:23:16;;;;;;;1.10;1.00;;;;;;;5.90;56.23;98621.19;6332070;28;20316;-80
2020/12/27 11:26:36;;;;;;;2.83;1.57;;;;;;;6.13;55.50;98601.69;6342049;28;20232;-79
2020/12/27 11:29:57;;;;;;;3.93;1.30;;;;;;;6.08;55.90;98597.47;6337123;28;20226;-80
2020/12/27 11:33:18;;;;;;;1.70;1.43;;;;;;;6.11;55.52;98584.50;6343109;28;20229;-80
2020/12/27 11:36:38;;;;;;;1.40;1.30;;;;;;;5.96;56.34;98563.38;6316374;28;20680;-78
2020/12/27 11:40:02;;;;;;;1.10;1.00;;;;;;;6.03;56.49;98570.94;6327510;28;20310;-79
2020/12/27 11:43:22;;;;;;;1.80;1.50;;;;;;;6.20;55.69;98577.38;6327829;28;20226;-78
2020/12/27 11:46:42;;;;;;;1.57;1.47;;;;;;;6.14;55.89;98556.88;6356258;27;20225;-79
2020/12/27 11:50:04;;;;;;;1.10;1.00;;;;;;;6.16;56.14;98555.09;6333317;28;20227;-79
2020/12/27 11:53:24;;;;;;;4.07;1.77;;;;;;;6.30;55.74;98532.28;6324233;28;20227;-78
2020/12/27 11:56:45;;;;;;;3.20;1.20;;;;;;;6.34;55.64;98523.56;6323880;28;20235;-78
2020/12/27 12:00:06;;;;;;;1.50;1.20;;;;;;;6.15;56.12;98517.22;6348937;27;20643;-78
2020/12/27 12:03:31;;;;;;;1.43;1.33;;;;;;;6.19;56.06;98493.81;6333785;27;20627;-78
2020/12/27 12:06:52;;;;;;;1.53;1.43;;;;;;;6.06;56.23;98495.91;6330914;28;20222;-78
2020/12/27 12:10:12;;;;;;;1.33;1.10;;;;;;;6.48;55.64;98495.56;6337439;28;20259;-78
2020/12/27 12:13:33;;;;;;;1.43;1.33;;;;;;;6.54;55.19;98478.19;6307701;28;20612;-79
2020/12/27 12:16:54;;;;;;;1.43;1.33;;;;;;;6.24;56.52;98479.03;6345042;27;20253;-77
2020/12/27 12:23:50;;;;;;;3.13;1.70;;;;;;;6.34;56.58;98477.03;6304453;28;20227;-78
2020/12/27 12:27:11;;;;;;;1.57;1.47;;;;;;;6.37;56.72;98476.94;6327468;27;20627;-77
2020/12/27 12:30:32;;;;;;;1.50;1.40;;;;;;;6.20;57.66;98474.81;6324070;28;20305;-78
2020/12/27 12:33:54;;;;;;;1.77;1.50;;;;;;;6.39;57.37;98469.13;6340798;27;20599;-78
2020/12/27 12:37:14;;;;;;;1.77;1.23;;;;;;;6.15;58.56;98450.03;6338866;28;20670;-78
2020/12/27 12:40:36;;;;;;;1.50;1.40;;;;;;;6.30;58.62;98444.38;6320571;28;20222;-78
2020/12/27 12:43:58;;;;;;;1.27;1.17;;;;;;;6.21;59.04;98444.69;6336676;27;20340;-77
2020/12/27 12:47:19;;;;;;;2.60;1.60;;;;;;;6.07;59.96;98447.66;6345644;28;20790;-79
2020/12/27 12:50:39;;;;;;;1.83;1.37;;;;;;;6.03;60.16;98435.69;6354703;27;20218;-77
2020/12/27 12:53:59;;;;;;;2.40;1.80;;;;;;;5.96;60.69;98435.03;6328776;28;20226;-75
2020/12/27 12:57:21;;;;;;;2.77;1.30;;;;;;;5.95;60.96;98428.16;6330132;27;20225;-77
2020/12/27 13:00:41;;;;;;;1.67;1.57;;;;;;;5.88;61.16;98405.97;6353298;27;20308;-76
2020/12/27 13:04:02;;;;;;;1.73;1.57;;;;;;;5.73;61.68;98402.91;6352849;27;20225;-76
2020/12/27 13:07:22;;;;;;;1.83;1.73;;;;;;;5.64;62.25;98408.34;6354748;27;20225;-77
2020/12/27 13:10:42;;;;;;;2.53;1.83;;;;;;;5.71;62.67;98394.38;6355914;27;20249;-76
2020/12/27 13:14:04;;;;;;;2.20;1.40;;;;;;;5.71;62.26;98372.88;6351814;27;20505;-76
2020/12/27 13:17:24;;;;;;;4.23;2.10;;;;;;;5.73;62.95;98392.59;6350431;27;20841;-75
2020/12/27 13:20:45;;;;;;;3.57;1.93;;;;;;;5.80;62.89;98392.44;6347135;27;20505;-78
2020/12/27 13:24:05;;;;;;;1.70;1.60;;;;;;;5.62;63.52;98379.16;6303310;28;20230;-77
2020/12/27 13:27:26;;;;;;;1.90;1.80;;;;;;;5.30;64.74;98372.28;6325024;28;20237;-79
2020/12/27 13:30:47;;;;;;;1.70;1.60;;;;;;;5.82;63.26;98360.50;6354062;27;20229;-78
2020/12/27 13:34:07;;;;;;;3.37;1.70;;;;;;;5.69;63.65;98360.00;6318258;28;20253;-77
2020/12/27 13:37:28;;;;;;;3.17;2.17;;;;;;;5.45;63.96;98360.69;6343285;28;20229;-78
2020/12/27 13:40:49;;;;;;;1.90;1.80;;;;;;;5.41;64.71;98348.72;6356885;27;20646;-79
2020/12/27 13:44:09;;;;;;;1.90;1.80;;;;;;;5.50;64.09;98343.31;6342952;28;20245;-77
2020/12/27 13:47:31;;;;;;;2.70;1.80;;;;;;;5.73;63.66;98340.94;6349044;27;20226;-77
2020/12/27 13:50:51;;;;;;;2.83;1.83;;;;;;;5.62;63.91;98331.81;6357303;27;20622;-78
2020/12/27 13:54:11;;;;;;;2.00;1.90;;;;;;;5.55;63.82;98320.81;6347622;27;20237;-79
2020/12/27 13:57:32;;;;;;;2.17;1.97;;;;;;;5.57;64.10;98333.69;6367771;27;20225;-78
2020/12/27 14:00:52;;;;;;;2.23;2.03;;;;;;;5.68;63.94;98317.00;6361553;27;20318;-78
2020/12/27 14:04:13;;;;;;;2.63;2.00;;;;;;;5.69;63.71;98317.84;6347280;27;20225;-77
2020/12/27 14:07:34;;;;;;;3.27;2.27;;;;;;;5.45;64.83;98317.66;6351200;27;20240;-78
2020/12/27 14:10:54;;;;;;;3.57;2.60;;;;;;;5.53;64.39;98317.44;6343815;27;20230;-77
2020/12/27 14:14:16;;;;;;;2.83;2.23;;;;;;;5.56;64.40;98312.16;6328149;27;20226;-77
2020/12/27 14:17:37;;;;;;;2.00;1.80;;;;;;;5.33;65.28;98315.38;6364432;27;20654;-77
2020/12/27 14:20:58;;;;;;;3.00;2.80;;;;;;;5.40;65.45;98305.75;6342000;27;20583;-76
2020/12/27 14:24:19;;;;;;;2.20;1.90;;;;;;;5.79;63.97;98302.91;6326974;28;20229;-77
2020/12/27 14:27:40;;;;;;;2.50;1.60;;;;;;;5.41;65.52;98291.94;6336954;27;20226;-77
2020/12/27 14:31:02;;;;;;;2.50;2.30;;;;;;;5.65;64.86;98293.84;6336541;27;20534;-78
2020/12/27 14:34:25;;;;;;;3.23;2.07;;;;;;;5.48;65.03;98288.31;6335071;28;20221;-76
2020/12/27 14:37:47;;;;;;;1.90;1.80;;;;;;;5.41;65.47;98292.81;6342070;27;20244;-76
2020/12/27 14:41:07;;;;;;;3.17;2.87;;;;;;;5.45;65.55;98288.41;6326483;28;20229;-76
2020/12/27 14:44:27;;;;;;;2.80;2.50;;;;;;;5.08;66.84;98282.53;6319193;28;20229;-76
2020/12/27 14:47:48;;;;;;;2.17;2.00;;;;;;;5.11;67.46;98284.19;6323523;28;20222;-76
2020/12/27 14:51:09;;;;;;;3.83;2.60;;;;;;;5.21;66.41;98279.63;6323726;28;20265;-75
2020/12/27 14:54:30;;;;;;;2.87;2.10;;;;;;;5.00;67.73;98270.72;6351379;28;20510;-77
2020/12/27 14:57:50;;;;;;;3.77;2.53;;;;;;;5.12;67.07;98262.66;6355872;28;20233;-76
2020/12/27 15:01:11;;;;;;;2.55;2.33;;;;;;;5.13;67.27;98254.03;6350471;28;20732;-76
2020/12/27 15:04:31;;;;;;;3.23;2.37;;;;;;;4.99;67.53;98256.16;6350770;28;20304;-77
2020/12/27 15:07:51;;;;;;;2.07;1.97;;;;;;;4.78;68.82;98255.00;6345210;28;20894;-76
2020/12/27 15:11:13;;;;;;;3.07;2.20;;;;;;;4.96;68.28;98244.16;6335770;28;20221;-77
2020/12/27 15:14:34;;;;;;;2.33;2.10;;;;;;;5.08;67.63;98232.69;6321311;28;20226;-75
2020/12/27 15:17:55;;;;;;;3.33;3.03;;;;;;;5.39;66.39;98226.63;6338483;28;20238;-76
2020/12/27 15:21:15;;;;;;;2.47;2.10;;;;;;;5.42;66.50;98216.22;6331855;28;20238;-76
2020/12/27 15:24:36;;;;;;;2.77;2.57;;;;;;;5.37;67.16;98211.22;6335871;27;20217;-77
2020/12/27 15:28:01;;;;;;;2.60;2.40;;;;;;;5.19;67.29;98212.56;6326422;28;20218;-77
2020/12/27 15:31:22;;;;;;;2.93;2.47;;;;;;;5.28;66.73;98220.03;6321453;28;20571;-77
2020/12/27 15:34:43;;;;;;;2.70;2.20;;;;;;;5.33;67.16;98201.84;6355854;27;20225;-78
2020/12/27 15:38:04;;;;;;;2.67;2.33;;;;;;;5.43;66.87;98194.66;6365985;27;20241;-76
2020/12/27 15:41:24;;;;;;;2.30;2.10;;;;;;;5.17;67.75;98206.59;6356579;27;20727;-76
2020/12/27 15:44:47;;;;;;;2.57;2.37;;;;;;;5.18;67.17;98207.47;6340348;27;20623;-78
2020/12/27 15:48:08;;;;;;;2.60;2.40;;;;;;;5.03;67.89;98176.03;6354657;27;20599;-76
2020/12/27 15:51:28;;;;;;;6.33;4.93;;;;;;;5.19;67.41;98189.34;6350052;27;20237;-78
2020/12/27 15:54:49;;;;;;;3.20;2.33;;;;;;;4.98;67.60;98182.22;6346265;27;20229;-77
2020/12/27 15:58:09;;;;;;;2.93;2.63;;;;;;;4.98;67.77;98179.66;6358235;27;20229;-76
2020/12/27 16:01:31;;;;;;;3.23;2.43;;;;;;;5.06;67.70;98193.16;6348971;27;20715;-76
2020/12/27 16:04:51;;;;;;;3.83;2.63;;;;;;;5.18;66.99;98185.09;6340855;27;20221;-77
2020/12/27 16:08:12;;;;;;;4.33;3.03;;;;;;;5.07;67.07;98169.91;6353066;27;20500;-77
2020/12/27 16:11:32;;;;;;;2.80;2.60;;;;;;;5.11;67.37;98186.97;6356124;27;20226;-76
2020/12/27 16:14:53;;;;;;;3.20;3.00;;;;;;;4.92;67.53;98173.78;6355516;27;20225;-77
2020/12/27 16:18:17;;;;;;;3.10;2.77;;;;;;;4.99;67.92;98151.22;6320093;28;20226;-77